This is the latest recevied weather packets stored in our database for station/object SIILIN. If no packets are shown the sender has not sent any weather packets the latest 10 day(s).
| Time | Temp. | Humidity | Pressure | Rain* | Wind** | Luminosity | Snow |
|---|---|---|---|---|---|---|---|
| 1777522014 | 3.33° C | 92% | 1021.1 hPa | - | - | - | - |
| 1777520815 | 3.33° C | 92% | 1020.9 hPa | - | - | - | - |
| 1777519614 | 3.33° C | 92% | 1021 hPa | - | - | - | - |
| 1777518414 | 3.33° C | 91% | 1021.2 hPa | - | - | - | - |
| 1777517214 | 3.33° C | 91% | 1021.3 hPa | - | - | - | - |
| 1777516014 | 3.33° C | 90% | 1021.3 hPa | - | - | - | - |
| 1777514814 | 3.33° C | 90% | 1021.4 hPa | - | - | - | - |
| 1777513614 | 3.33° C | 90% | 1021.7 hPa | - | - | - | - |
| 1777512414 | 3.33° C | 89% | 1021.6 hPa | - | - | - | - |
| 1777511214 | 3.33° C | 88% | 1021.7 hPa | - | - | - | - |
| 1777507614 | 3.33° C | 79% | 1022.4 hPa | - | - | - | - |
| 1777499213 | 3.89° C | 65% | 1022.7 hPa | - | - | - | - |
| 1777498013 | 4.44° C | 63% | 1022.7 hPa | - | - | - | - |
| 1777496813 | 4.44° C | 57% | 1022.7 hPa | - | - | - | - |
| 1777495613 | 4.44° C | 56% | 1022.6 hPa | - | - | - | - |
| 1777494412 | 4.44° C | 55% | 1022.7 hPa | - | - | - | - |
| 1777493213 | 5° C | 53% | 1022.8 hPa | - | - | - | - |
| 1777490812 | 5° C | 54% | 1023.1 hPa | - | - | - | - |
| 1777489613 | 5° C | 52% | 1023 hPa | - | - | - | - |
| 1777486012 | 6.11° C | 41% | 1023 hPa | - | - | - | - |
| 1777484812 | 6.11° C | 39% | 1022.9 hPa | - | - | - | - |
| 1777483612 | 6.67° C | 42% | 1022.9 hPa | - | - | - | - |
| 1777482412 | 6.67° C | 41% | 1022.9 hPa | - | - | - | - |
| 1777480012 | 7.22° C | 36% | 1023 hPa | - | - | - | - |
| 1777478811 | 7.22° C | 35% | 1023 hPa | - | - | - | - |
* Rain since midnight (hover to see other rain measurements)
** Current wind speed in m/s (hover to see current wind gust speed)